sensor_id;sensor_type;location;lat;lon;timestamp;temperature;humidity
62476;DHT22;50739;45.670;11.936;2022-08-21T00:01:22;22.84;71.70
62476;DHT22;50739;45.670;11.936;2022-08-21T00:06:24;22.81;71.54
62476;DHT22;50739;45.670;11.936;2022-08-21T00:11:26;22.85;71.69
62476;DHT22;50739;45.670;11.936;2022-08-21T00:16:30;22.75;71.82
62476;DHT22;50739;45.670;11.936;2022-08-21T00:21:32;22.60;72.52
62476;DHT22;50739;45.670;11.936;2022-08-21T00:26:34;22.50;72.94
62476;DHT22;50739;45.670;11.936;2022-08-21T00:31:37;22.50;72.83
62476;DHT22;50739;45.670;11.936;2022-08-21T00:36:40;22.40;73.31
62476;DHT22;50739;45.670;11.936;2022-08-21T00:41:42;22.32;73.97
62476;DHT22;50739;45.670;11.936;2022-08-21T00:46:46;22.13;74.23
62476;DHT22;50739;45.670;11.936;2022-08-21T00:51:51;22.13;74.09
62476;DHT22;50739;45.670;11.936;2022-08-21T00:56:57;22.05;74.02
62476;DHT22;50739;45.670;11.936;2022-08-21T01:02:02;22.10;73.86
62476;DHT22;50739;45.670;11.936;2022-08-21T01:07:05;22.23;72.78
62476;DHT22;50739;45.670;11.936;2022-08-21T01:12:07;22.23;73.41
62476;DHT22;50739;45.670;11.936;2022-08-21T01:17:13;22.17;73.92
62476;DHT22;50739;45.670;11.936;2022-08-21T01:22:16;22.09;73.59
62476;DHT22;50739;45.670;11.936;2022-08-21T01:27:20;22.06;73.83
62476;DHT22;50739;45.670;11.936;2022-08-21T01:32:23;22.00;73.53
62476;DHT22;50739;45.670;11.936;2022-08-21T01:37:26;21.98;73.90
62476;DHT22;50739;45.670;11.936;2022-08-21T01:42:28;21.81;73.98
62476;DHT22;50739;45.670;11.936;2022-08-21T01:47:32;21.91;73.69
62476;DHT22;50739;45.670;11.936;2022-08-21T01:52:35;21.81;74.49
62476;DHT22;50739;45.670;11.936;2022-08-21T01:57:38;21.78;74.97
62476;DHT22;50739;45.670;11.936;2022-08-21T02:02:40;21.68;74.49
62476;DHT22;50739;45.670;11.936;2022-08-21T02:07:46;21.57;74.73
62476;DHT22;50739;45.670;11.936;2022-08-21T02:12:48;21.45;75.39
62476;DHT22;50739;45.670;11.936;2022-08-21T02:17:54;21.53;75.01
62476;DHT22;50739;45.670;11.936;2022-08-21T02:22:58;21.54;76.37
62476;DHT22;50739;45.670;11.936;2022-08-21T02:28:04;21.37;75.43
62476;DHT22;50739;45.670;11.936;2022-08-21T02:33:07;21.22;76.04
62476;DHT22;50739;45.670;11.936;2022-08-21T02:38:13;21.23;76.22
62476;DHT22;50739;45.670;11.936;2022-08-21T02:43:16;21.34;75.54
62476;DHT22;50739;45.670;11.936;2022-08-21T02:48:20;21.34;75.81
62476;DHT22;50739;45.670;11.936;2022-08-21T02:53:24;21.26;76.17
62476;DHT22;50739;45.670;11.936;2022-08-21T02:58:28;21.06;76.64
62476;DHT22;50739;45.670;11.936;2022-08-21T03:03:31;21.06;77.01
62476;DHT22;50739;45.670;11.936;2022-08-21T03:08:37;21.10;77.00
62476;DHT22;50739;45.670;11.936;2022-08-21T03:13:39;21.13;76.83
62476;DHT22;50739;45.670;11.936;2022-08-21T03:18:41;20.88;77.16
62476;DHT22;50739;45.670;11.936;2022-08-21T03:23:44;20.92;77.96
62476;DHT22;50739;45.670;11.936;2022-08-21T03:28:46;20.86;78.12
62476;DHT22;50739;45.670;11.936;2022-08-21T03:33:49;20.83;77.90
62476;DHT22;50739;45.670;11.936;2022-08-21T03:38:52;21.00;77.61
62476;DHT22;50739;45.670;11.936;2022-08-21T03:43:54;20.67;78.67
62476;DHT22;50739;45.670;11.936;2022-08-21T03:48:56;20.59;78.45
62476;DHT22;50739;45.670;11.936;2022-08-21T03:54:00;20.49;78.71
62476;DHT22;50739;45.670;11.936;2022-08-21T03:59:02;20.58;79.06
62476;DHT22;50739;45.670;11.936;2022-08-21T04:04:04;20.61;79.03
62476;DHT22;50739;45.670;11.936;2022-08-21T04:09:08;20.64;78.77
62476;DHT22;50739;45.670;11.936;2022-08-21T04:14:10;20.55;78.76
62476;DHT22;50739;45.670;11.936;2022-08-21T04:19:12;20.55;79.32
62476;DHT22;50739;45.670;11.936;2022-08-21T04:24:16;20.47;79.22
62476;DHT22;50739;45.670;11.936;2022-08-21T04:29:17;20.48;78.80
62476;DHT22;50739;45.670;11.936;2022-08-21T04:34:20;20.40;78.26
62476;DHT22;50739;45.670;11.936;2022-08-21T04:39:23;20.54;78.13
62476;DHT22;50739;45.670;11.936;2022-08-21T04:44:25;20.44;78.15
62476;DHT22;50739;45.670;11.936;2022-08-21T04:49:27;20.44;76.86
62476;DHT22;50739;45.670;11.936;2022-08-21T04:54:31;20.58;76.85
62476;DHT22;50739;45.670;11.936;2022-08-21T04:59:37;20.59;77.16
62476;DHT22;50739;45.670;11.936;2022-08-21T05:04:43;20.79;75.58
62476;DHT22;50739;45.670;11.936;2022-08-21T05:09:47;20.69;76.47
62476;DHT22;50739;45.670;11.936;2022-08-21T05:14:49;20.78;76.37
62476;DHT22;50739;45.670;11.936;2022-08-21T05:19:51;20.75;77.17
62476;DHT22;50739;45.670;11.936;2022-08-21T05:24:56;20.95;77.37
62476;DHT22;50739;45.670;11.936;2022-08-21T05:29:58;21.10;75.12
62476;DHT22;50739;45.670;11.936;2022-08-21T05:35:00;21.26;74.33
62476;DHT22;50739;45.670;11.936;2022-08-21T05:40:05;21.43;73.28
62476;DHT22;50739;45.670;11.936;2022-08-21T05:45:08;21.54;74.38
62476;DHT22;50739;45.670;11.936;2022-08-21T05:50:10;21.64;72.51
62476;DHT22;50739;45.670;11.936;2022-08-21T05:55:14;21.79;71.19
62476;DHT22;50739;45.670;11.936;2022-08-21T06:00:16;21.92;70.70
62476;DHT22;50739;45.670;11.936;2022-08-21T06:05:18;21.99;71.11
62476;DHT22;50739;45.670;11.936;2022-08-21T06:10:21;22.14;70.45
62476;DHT22;50739;45.670;11.936;2022-08-21T06:15:23;22.29;69.82
62476;DHT22;50739;45.670;11.936;2022-08-21T06:20:25;22.46;69.95
62476;DHT22;50739;45.670;11.936;2022-08-21T06:25:29;22.61;68.86
62476;DHT22;50739;45.670;11.936;2022-08-21T06:30:32;22.75;68.24
62476;DHT22;50739;45.670;11.936;2022-08-21T06:35:34;22.92;66.31
62476;DHT22;50739;45.670;11.936;2022-08-21T06:40:38;23.19;66.42
62476;DHT22;50739;45.670;11.936;2022-08-21T06:45:41;23.40;65.30
62476;DHT22;50739;45.670;11.936;2022-08-21T06:50:43;23.57;63.85
62476;DHT22;50739;45.670;11.936;2022-08-21T06:55:47;23.78;62.74
62476;DHT22;50739;45.670;11.936;2022-08-21T07:00:51;23.98;61.21
62476;DHT22;50739;45.670;11.936;2022-08-21T07:05:53;24.14;60.62
62476;DHT22;50739;45.670;11.936;2022-08-21T07:10:58;24.28;60.46
62476;DHT22;50739;45.670;11.936;2022-08-21T07:16:00;24.42;58.91
62476;DHT22;50739;45.670;11.936;2022-08-21T07:21:02;24.73;58.85
62476;DHT22;50739;45.670;11.936;2022-08-21T07:26:07;24.91;58.94
62476;DHT22;50739;45.670;11.936;2022-08-21T07:31:10;25.08;60.15
62476;DHT22;50739;45.670;11.936;2022-08-21T07:36:14;25.11;59.15
62476;DHT22;50739;45.670;11.936;2022-08-21T07:41:20;25.25;58.33
62476;DHT22;50739;45.670;11.936;2022-08-21T07:46:23;25.35;59.32
62476;DHT22;50739;45.670;11.936;2022-08-21T07:51:26;25.65;58.70
62476;DHT22;50739;45.670;11.936;2022-08-21T07:56:30;25.84;58.85
62476;DHT22;50739;45.670;11.936;2022-08-21T08:01:33;25.96;58.49
62476;DHT22;50739;45.670;11.936;2022-08-21T08:06:35;26.21;57.40
62476;DHT22;50739;45.670;11.936;2022-08-21T08:11:40;26.62;55.04
62476;DHT22;50739;45.670;11.936;2022-08-21T08:16:43;26.76;55.89
62476;DHT22;50739;45.670;11.936;2022-08-21T08:21:45;26.57;56.71
62476;DHT22;50739;45.670;11.936;2022-08-21T08:26:49;26.56;56.85
62476;DHT22;50739;45.670;11.936;2022-08-21T08:31:51;26.66;56.33
62476;DHT22;50739;45.670;11.936;2022-08-21T08:36:53;26.93;54.61
62476;DHT22;50739;45.670;11.936;2022-08-21T08:41:59;26.93;55.78
62476;DHT22;50739;45.670;11.936;2022-08-21T08:47:04;27.04;54.38
62476;DHT22;50739;45.670;11.936;2022-08-21T08:52:11;26.96;53.76
62476;DHT22;50739;45.670;11.936;2022-08-21T08:57:20;27.34;54.51
62476;DHT22;50739;45.670;11.936;2022-08-21T09:02:24;27.06;55.09
62476;DHT22;50739;45.670;11.936;2022-08-21T09:07:35;27.27;54.20
62476;DHT22;50739;45.670;11.936;2022-08-21T09:12:49;27.31;53.56
62476;DHT22;50739;45.670;11.936;2022-08-21T09:18:18;27.66;52.76
62476;DHT22;50739;45.670;11.936;2022-08-21T09:23:27;27.89;52.55
62476;DHT22;50739;45.670;11.936;2022-08-21T09:28:33;27.89;52.51
62476;DHT22;50739;45.670;11.936;2022-08-21T09:33:36;28.02;51.87
62476;DHT22;50739;45.670;11.936;2022-08-21T09:38:38;28.21;51.15
62476;DHT22;50739;45.670;11.936;2022-08-21T09:43:52;28.16;50.32
62476;DHT22;50739;45.670;11.936;2022-08-21T09:48:56;28.57;46.47
62476;DHT22;50739;45.670;11.936;2022-08-21T09:54:12;28.50;47.77
62476;DHT22;50739;45.670;11.936;2022-08-21T09:59:20;28.57;48.93
62476;DHT22;50739;45.670;11.936;2022-08-21T10:04:26;28.75;46.18
62476;DHT22;50739;45.670;11.936;2022-08-21T10:09:28;28.75;47.29
62476;DHT22;50739;45.670;11.936;2022-08-21T10:14:43;28.74;46.51
62476;DHT22;50739;45.670;11.936;2022-08-21T10:19:53;28.85;47.04
62476;DHT22;50739;45.670;11.936;2022-08-21T10:25:02;28.79;46.97
62476;DHT22;50739;45.670;11.936;2022-08-21T10:30:12;29.19;46.70
62476;DHT22;50739;45.670;11.936;2022-08-21T10:35:20;29.19;46.94
62476;DHT22;50739;45.670;11.936;2022-08-21T10:40:27;29.67;46.75
62476;DHT22;50739;45.670;11.936;2022-08-21T10:45:51;29.40;46.08
62476;DHT22;50739;45.670;11.936;2022-08-21T10:50:59;29.42;45.95
62476;DHT22;50739;45.670;11.936;2022-08-21T10:56:13;29.61;46.03
62476;DHT22;50739;45.670;11.936;2022-08-21T11:01:22;29.88;46.50
62476;DHT22;50739;45.670;11.936;2022-08-21T11:06:29;30.16;46.57
62476;DHT22;50739;45.670;11.936;2022-08-21T11:11:36;29.93;43.47
62476;DHT22;50739;45.670;11.936;2022-08-21T11:16:44;30.16;45.70
62476;DHT22;50739;45.670;11.936;2022-08-21T11:21:52;30.02;45.28
62476;DHT22;50739;45.670;11.936;2022-08-21T11:26:59;30.32;47.23
62476;DHT22;50739;45.670;11.936;2022-08-21T11:32:31;30.78;45.23
62476;DHT22;50739;45.670;11.936;2022-08-21T11:37:48;31.09;46.00
62476;DHT22;50739;45.670;11.936;2022-08-21T11:42:59;31.22;45.25
62476;DHT22;50739;45.670;11.936;2022-08-21T11:48:12;31.18;43.73
62476;DHT22;50739;45.670;11.936;2022-08-21T11:53:20;31.47;41.74
62476;DHT22;50739;45.670;11.936;2022-08-21T11:58:27;31.72;41.23
62476;DHT22;50739;45.670;11.936;2022-08-21T12:03:34;31.95;39.21
62476;DHT22;50739;45.670;11.936;2022-08-21T12:08:38;31.90;39.38
62476;DHT22;50739;45.670;11.936;2022-08-21T12:13:53;32.22;39.81
62476;DHT22;50739;45.670;11.936;2022-08-21T12:19:04;31.94;39.78
62476;DHT22;50739;45.670;11.936;2022-08-21T12:24:16;32.45;39.03
62476;DHT22;50739;45.670;11.936;2022-08-21T12:29:24;32.83;39.55
62476;DHT22;50739;45.670;11.936;2022-08-21T12:34:45;32.51;37.33
62476;DHT22;50739;45.670;11.936;2022-08-21T12:39:49;32.43;39.96
62476;DHT22;50739;45.670;11.936;2022-08-21T12:44:56;33.11;38.85
62476;DHT22;50739;45.670;11.936;2022-08-21T12:50:05;33.62;36.68
62476;DHT22;50739;45.670;11.936;2022-08-21T12:55:12;33.73;35.68
62476;DHT22;50739;45.670;11.936;2022-08-21T13:00:21;33.79;37.40
62476;DHT22;50739;45.670;11.936;2022-08-21T13:05:30;34.17;35.93
62476;DHT22;50739;45.670;11.936;2022-08-21T13:10:33;34.25;37.22
62476;DHT22;50739;45.670;11.936;2022-08-21T13:15:40;34.82;35.42
62476;DHT22;50739;45.670;11.936;2022-08-21T13:20:43;35.00;34.21
62476;DHT22;50739;45.670;11.936;2022-08-21T13:25:45;34.58;35.22
62476;DHT22;50739;45.670;11.936;2022-08-21T13:30:49;35.44;32.79
62476;DHT22;50739;45.670;11.936;2022-08-21T13:36:02;35.94;32.94
62476;DHT22;50739;45.670;11.936;2022-08-21T13:41:18;35.10;32.51
62476;DHT22;50739;45.670;11.936;2022-08-21T13:46:22;36.08;31.77
62476;DHT22;50739;45.670;11.936;2022-08-21T13:51:27;36.92;30.53
62476;DHT22;50739;45.670;11.936;2022-08-21T13:56:31;36.70;30.78
62476;DHT22;50739;45.670;11.936;2022-08-21T14:01:36;36.64;31.49
62476;DHT22;50739;45.670;11.936;2022-08-21T14:06:41;37.70;30.82
62476;DHT22;50739;45.670;11.936;2022-08-21T14:11:43;37.83;30.23
62476;DHT22;50739;45.670;11.936;2022-08-21T14:16:52;37.93;30.77
62476;DHT22;50739;45.670;11.936;2022-08-21T14:21:56;37.14;30.72
62476;DHT22;50739;45.670;11.936;2022-08-21T14:27:02;35.84;31.80
62476;DHT22;50739;45.670;11.936;2022-08-21T14:32:11;36.84;31.31
62476;DHT22;50739;45.670;11.936;2022-08-21T14:37:15;38.25;31.14
62476;DHT22;50739;45.670;11.936;2022-08-21T14:42:17;37.39;30.34
62476;DHT22;50739;45.670;11.936;2022-08-21T14:47:18;37.76;30.11
62476;DHT22;50739;45.670;11.936;2022-08-21T14:52:22;38.13;30.63
62476;DHT22;50739;45.670;11.936;2022-08-21T14:57:24;37.02;31.15
62476;DHT22;50739;45.670;11.936;2022-08-21T15:02:27;37.45;31.54
62476;DHT22;50739;45.670;11.936;2022-08-21T15:07:30;37.61;31.12
62476;DHT22;50739;45.670;11.936;2022-08-21T15:12:32;38.01;31.81
62476;DHT22;50739;45.670;11.936;2022-08-21T15:17:35;37.82;30.76
62476;DHT22;50739;45.670;11.936;2022-08-21T15:22:38;37.56;30.80
62476;DHT22;50739;45.670;11.936;2022-08-21T15:27:41;36.49;34.73
62476;DHT22;50739;45.670;11.936;2022-08-21T15:32:42;36.04;33.48
62476;DHT22;50739;45.670;11.936;2022-08-21T15:37:46;35.95;36.31
62476;DHT22;50739;45.670;11.936;2022-08-21T15:42:56;35.92;36.79
62476;DHT22;50739;45.670;11.936;2022-08-21T15:47:59;35.94;35.84
62476;DHT22;50739;45.670;11.936;2022-08-21T15:53:02;37.18;34.78
62476;DHT22;50739;45.670;11.936;2022-08-21T15:58:05;36.45;34.91
62476;DHT22;50739;45.670;11.936;2022-08-21T16:03:08;36.79;33.81
62476;DHT22;50739;45.670;11.936;2022-08-21T16:08:14;37.10;33.50
62476;DHT22;50739;45.670;11.936;2022-08-21T16:13:20;36.39;34.61
62476;DHT22;50739;45.670;11.936;2022-08-21T16:18:22;36.97;33.94
62476;DHT22;50739;45.670;11.936;2022-08-21T16:23:27;36.33;34.75
62476;DHT22;50739;45.670;11.936;2022-08-21T16:28:29;34.41;38.10
62476;DHT22;50739;45.670;11.936;2022-08-21T16:33:33;33.65;39.80
62476;DHT22;50739;45.670;11.936;2022-08-21T16:38:38;33.86;39.71
62476;DHT22;50739;45.670;11.936;2022-08-21T16:43:42;34.10;38.81
62476;DHT22;50739;45.670;11.936;2022-08-21T16:48:45;34.03;38.73
62476;DHT22;50739;45.670;11.936;2022-08-21T16:53:48;32.99;40.43
62476;DHT22;50739;45.670;11.936;2022-08-21T16:58:52;32.96;39.48
62476;DHT22;50739;45.670;11.936;2022-08-21T17:03:54;32.60;40.55
62476;DHT22;50739;45.670;11.936;2022-08-21T17:08:58;32.18;41.71
62476;DHT22;50739;45.670;11.936;2022-08-21T17:14:03;31.88;42.52
62476;DHT22;50739;45.670;11.936;2022-08-21T17:19:05;31.60;43.07
62476;DHT22;50739;45.670;11.936;2022-08-21T17:24:08;31.40;43.74
62476;DHT22;50739;45.670;11.936;2022-08-21T17:29:12;31.14;44.79
62476;DHT22;50739;45.670;11.936;2022-08-21T17:34:15;31.03;45.05
62476;DHT22;50739;45.670;11.936;2022-08-21T17:39:18;30.88;46.76
62476;DHT22;50739;45.670;11.936;2022-08-21T17:44:21;30.78;47.03
62476;DHT22;50739;45.670;11.936;2022-08-21T17:49:22;30.65;47.90
62476;DHT22;50739;45.670;11.936;2022-08-21T17:54:26;30.48;48.41
62476;DHT22;50739;45.670;11.936;2022-08-21T17:59:28;30.22;49.73
62476;DHT22;50739;45.670;11.936;2022-08-21T18:04:30;29.97;52.55
62476;DHT22;50739;45.670;11.936;2022-08-21T18:09:33;29.71;54.17
62476;DHT22;50739;45.670;11.936;2022-08-21T18:14:35;29.61;54.64
62476;DHT22;50739;45.670;11.936;2022-08-21T18:19:41;29.37;55.58
62476;DHT22;50739;45.670;11.936;2022-08-21T18:24:45;29.51;56.79
62476;DHT22;50739;45.670;11.936;2022-08-21T18:29:48;29.29;57.58
62476;DHT22;50739;45.670;11.936;2022-08-21T18:34:53;29.10;58.42
62476;DHT22;50739;45.670;11.936;2022-08-21T18:39:56;28.95;58.76
62476;DHT22;50739;45.670;11.936;2022-08-21T18:45:00;28.71;59.61
62476;DHT22;50739;45.670;11.936;2022-08-21T18:50:03;28.65;59.93
62476;DHT22;50739;45.670;11.936;2022-08-21T18:55:08;28.50;60.68
62476;DHT22;50739;45.670;11.936;2022-08-21T19:00:14;28.37;61.78
62476;DHT22;50739;45.670;11.936;2022-08-21T19:05:17;28.40;61.44
62476;DHT22;50739;45.670;11.936;2022-08-21T19:10:22;28.13;62.27
62476;DHT22;50739;45.670;11.936;2022-08-21T19:15:24;28.12;64.10
62476;DHT22;50739;45.670;11.936;2022-08-21T19:20:28;28.13;63.52
62476;DHT22;50739;45.670;11.936;2022-08-21T19:25:33;27.99;63.11
62476;DHT22;50739;45.670;11.936;2022-08-21T19:30:37;27.97;63.23
62476;DHT22;50739;45.670;11.936;2022-08-21T19:35:39;27.84;63.71
62476;DHT22;50739;45.670;11.936;2022-08-21T19:40:42;27.73;63.81
62476;DHT22;50739;45.670;11.936;2022-08-21T19:45:45;27.81;63.44
62476;DHT22;50739;45.670;11.936;2022-08-21T19:50:47;27.76;62.37
62476;DHT22;50739;45.670;11.936;2022-08-21T19:55:50;27.65;61.66
62476;DHT22;50739;45.670;11.936;2022-08-21T20:00:52;27.59;61.13
62476;DHT22;50739;45.670;11.936;2022-08-21T20:05:54;27.44;61.35
62476;DHT22;50739;45.670;11.936;2022-08-21T20:10:58;27.42;61.03
62476;DHT22;50739;45.670;11.936;2022-08-21T20:16:05;27.41;61.15
62476;DHT22;50739;45.670;11.936;2022-08-21T20:21:08;27.35;61.28
62476;DHT22;50739;45.670;11.936;2022-08-21T20:26:13;27.20;61.72
62476;DHT22;50739;45.670;11.936;2022-08-21T20:31:16;27.06;61.46
62476;DHT22;50739;45.670;11.936;2022-08-21T20:36:19;26.96;61.65
62476;DHT22;50739;45.670;11.936;2022-08-21T20:41:24;26.59;64.16
62476;DHT22;50739;45.670;11.936;2022-08-21T20:46:28;26.56;64.50
62476;DHT22;50739;45.670;11.936;2022-08-21T20:51:33;26.39;66.23
62476;DHT22;50739;45.670;11.936;2022-08-21T20:56:42;25.47;67.70
62476;DHT22;50739;45.670;11.936;2022-08-21T21:01:46;24.43;71.60
62476;DHT22;50739;45.670;11.936;2022-08-21T21:06:49;23.77;75.68
62476;DHT22;50739;45.670;11.936;2022-08-21T21:11:56;23.23;79.44
62476;DHT22;50739;45.670;11.936;2022-08-21T21:17:03;23.45;82.21
62476;DHT22;50739;45.670;11.936;2022-08-21T21:22:08;23.73;80.36
62476;DHT22;50739;45.670;11.936;2022-08-21T21:27:16;23.85;78.62
62476;DHT22;50739;45.670;11.936;2022-08-21T21:32:20;23.94;77.37
62476;DHT22;50739;45.670;11.936;2022-08-21T21:37:24;23.70;80.68
62476;DHT22;50739;45.670;11.936;2022-08-21T21:42:37;23.73;83.97
62476;DHT22;50739;45.670;11.936;2022-08-21T21:47:53;23.63;84.29
62476;DHT22;50739;45.670;11.936;2022-08-21T21:53:07;23.66;85.19
62476;DHT22;50739;45.670;11.936;2022-08-21T22:03:54;23.73;87.01
62476;DHT22;50739;45.670;11.936;2022-08-21T22:09:05;23.51;86.28
62476;DHT22;50739;45.670;11.936;2022-08-21T22:14:11;23.64;85.12
62476;DHT22;50739;45.670;11.936;2022-08-21T22:19:19;23.68;83.61
62476;DHT22;50739;45.670;11.936;2022-08-21T22:24:26;23.51;81.32
62476;DHT22;50739;45.670;11.936;2022-08-21T22:29:41;23.32;82.78
62476;DHT22;50739;45.670;11.936;2022-08-21T22:34:59;23.23;84.26
62476;DHT22;50739;45.670;11.936;2022-08-21T22:40:04;23.29;83.41
62476;DHT22;50739;45.670;11.936;2022-08-21T22:45:08;23.39;82.34
62476;DHT22;50739;45.670;11.936;2022-08-21T22:50:19;23.42;82.89
62476;DHT22;50739;45.670;11.936;2022-08-21T22:55:24;23.40;82.35
62476;DHT22;50739;45.670;11.936;2022-08-21T23:00:49;23.27;82.87
62476;DHT22;50739;45.670;11.936;2022-08-21T23:05:53;23.23;82.86
62476;DHT22;50739;45.670;11.936;2022-08-21T23:10:57;23.27;83.61
62476;DHT22;50739;45.670;11.936;2022-08-21T23:16:05;23.29;82.56
62476;DHT22;50739;45.670;11.936;2022-08-21T23:21:14;23.16;83.46
62476;DHT22;50739;45.670;11.936;2022-08-21T23:26:25;23.16;83.61
62476;DHT22;50739;45.670;11.936;2022-08-21T23:31:32;23.06;84.29
62476;DHT22;50739;45.670;11.936;2022-08-21T23:36:44;22.92;83.70
62476;DHT22;50739;45.670;11.936;2022-08-21T23:42:12;22.90;83.92
62476;DHT22;50739;45.670;11.936;2022-08-21T23:47:27;23.05;82.47
62476;DHT22;50739;45.670;11.936;2022-08-21T23:52:41;23.05;83.06
62476;DHT22;50739;45.670;11.936;2022-08-21T23:57:53;22.95;82.53
